Time;durP1;ratioP1;P1;durP2;ratioP2;P2;SDS_P1;SDS_P2;PMS_P1;PMS_P2;Temp;Humidity;BMP_temperature;BMP_pressure;BME280_temperature;BME280_humidity;BME280_pressure;Samples;Min_cycle;Max_cycle;Signal;HPM_P1;HPM_P2
2023/03/30 00:00:55;;;;;;;399.43;79.30;;;10.70;99.90;;;;;;5069000;28;20332;-51
2023/03/30 00:03:26;;;;;;;437.67;75.70;;;10.70;99.90;;;;;;5069032;28;20316;-51
2023/03/30 00:05:56;;;;;;;755.60;133.57;;;10.60;99.90;;;;;;5068786;28;20231;-51
2023/03/30 00:08:26;;;;;;;386.60;74.27;;;10.60;99.90;;;;;;5068488;28;20670;-51
2023/03/30 00:11:00;;;;;;;964.97;154.63;;;10.60;99.90;;;;;;5068687;28;20213;-52
2023/03/30 00:13:30;;;;;;;597.00;103.50;;;10.50;99.90;;;;;;5068743;28;20212;-51
2023/03/30 00:15:58;;;;;;;290.97;70.20;;;10.50;99.90;;;;;;5068361;28;20319;-51
2023/03/30 00:18:28;;;;;;;95.07;32.13;;;10.50;99.90;;;;;;5068960;28;20204;-50
2023/03/30 00:20:57;;;;;;;113.83;47.90;;;10.50;99.90;;;;;;5073500;28;20287;-50
2023/03/30 00:23:26;;;;;;;364.93;69.23;;;10.40;99.90;;;;;;5075547;28;20204;-51
2023/03/30 00:25:54;;;;;;;41.03;19.87;;;10.40;99.90;;;;;;5075062;28;20224;-51
2023/03/30 00:28:22;;;;;;;282.93;60.33;;;10.40;99.90;;;;;;5075258;28;20302;-50
2023/03/30 00:30:51;;;;;;;26.60;17.27;;;10.30;99.90;;;;;;5075774;28;20208;-51
2023/03/30 00:33:20;;;;;;;27.90;18.10;;;10.30;99.90;;;;;;5073837;28;20661;-50
2023/03/30 00:36:02;;;;;;;28.80;17.03;;;10.20;99.90;;;;;;5075297;28;20651;-51
2023/03/30 00:38:30;;;;;;;45.17;21.80;;;10.20;99.90;;;;;;5075516;28;20265;-51
2023/03/30 00:41:00;;;;;;;39.87;23.60;;;10.20;99.90;;;;;;5075568;28;20243;-51
2023/03/30 00:43:29;;;;;;;22.73;10.80;;;10.20;99.90;;;;;;5075545;28;20279;-51
2023/03/30 00:45:57;;;;;;;27.03;12.00;;;10.20;99.90;;;;;;5075374;28;20311;-51
2023/03/30 00:48:28;;;;;;;42.70;23.47;;;10.20;99.90;;;;;;5075354;28;20295;-50
2023/03/30 00:50:59;;;;;;;103.70;31.60;;;10.20;99.90;;;;;;5075526;28;20208;-51
2023/03/30 00:53:32;;;;;;;170.70;34.90;;;10.10;99.90;;;;;;5074869;28;20238;-50
2023/03/30 00:56:02;;;;;;;350.50;79.20;;;10.10;99.90;;;;;;5075200;28;20793;-50
2023/03/30 00:58:31;;;;;;;39.60;22.00;;;10.10;99.90;;;;;;5075254;28;20196;-51
2023/03/30 01:01:02;;;;;;;124.20;40.83;;;10.10;99.90;;;;;;5074930;28;20291;-51
2023/03/30 01:03:32;;;;;;;47.30;27.23;;;10.00;99.90;;;;;;5075196;28;20197;-51
2023/03/30 01:06:03;;;;;;;34.87;15.87;;;10.00;99.90;;;;;;5075082;28;20232;-51
2023/03/30 01:08:33;;;;;;;57.80;22.40;;;9.90;99.90;;;;;;5075183;28;20201;-51
2023/03/30 01:11:02;;;;;;;18.00;11.03;;;9.90;99.90;;;;;;5074637;28;20291;-51
2023/03/30 01:13:32;;;;;;;115.87;32.93;;;9.80;99.90;;;;;;5074377;28;20739;-51
2023/03/30 01:16:11;;;;;;;35.80;20.00;;;9.80;99.90;;;;;;5074852;28;20220;-50
2023/03/30 01:18:48;;;;;;;43.00;25.23;;;9.80;99.90;;;;;;5074996;28;20231;-51
2023/03/30 01:22:03;;;;;;;17.23;11.73;;;9.70;99.90;;;;;;5075046;28;20204;-50
2023/03/30 01:25:10;;;;;;;29.53;15.57;;;9.70;99.90;;;;;;5073603;28;20201;-50
2023/03/30 01:28:08;;;;;;;108.20;31.23;;;9.60;99.90;;;;;;5074765;28;20232;-50
2023/03/30 01:30:54;;;;;;;44.53;17.67;;;9.50;99.90;;;;;;5075039;28;20209;-51
2023/03/30 01:33:54;;;;;;;221.10;48.90;;;9.50;99.90;;;;;;5058692;28;20704;-51
2023/03/30 01:36:44;;;;;;;84.53;30.30;;;9.50;99.90;;;;;;5071205;28;20761;-50
2023/03/30 01:39:32;;;;;;;25.87;14.80;;;9.50;99.90;;;;;;5071902;28;20215;-50
2023/03/30 01:42:08;;;;;;;26.00;13.23;;;9.50;99.90;;;;;;5059924;28;20205;-51
2023/03/30 01:44:43;;;;;;;32.10;17.23;;;9.50;99.90;;;;;;5071175;28;20212;-51
2023/03/30 01:47:19;;;;;;;33.10;20.07;;;9.40;99.90;;;;;;5071575;28;20363;-50
2023/03/30 01:49:56;;;;;;;71.77;35.10;;;9.40;99.90;;;;;;5071483;28;20298;-51
2023/03/30 01:52:30;;;;;;;38.30;22.13;;;9.30;99.90;;;;;;5071109;28;20216;-50
2023/03/30 01:55:03;;;;;;;45.10;19.53;;;9.30;99.90;;;;;;5070956;28;20219;-50
2023/03/30 01:57:39;;;;;;;135.27;34.50;;;9.30;99.90;;;;;;5070906;28;20224;-50
2023/03/30 02:00:12;;;;;;;27.53;15.43;;;9.30;99.90;;;;;;5070890;28;20211;-51
2023/03/30 02:02:44;;;;;;;187.20;59.73;;;9.20;99.90;;;;;;5071245;28;20584;-49
2023/03/30 02:05:16;;;;;;;32.23;23.33;;;9.20;99.90;;;;;;5071062;28;20201;-51
2023/03/30 02:07:49;;;;;;;42.50;24.07;;;9.10;99.90;;;;;;5070612;28;20215;-50
2023/03/30 02:10:22;;;;;;;55.93;23.63;;;9.00;99.90;;;;;;5071055;28;20239;-50
2023/03/30 02:12:51;;;;;;;48.37;23.33;;;9.00;99.90;;;;;;5070695;28;20225;-50
2023/03/30 02:15:20;;;;;;;53.30;27.07;;;8.90;99.90;;;;;;5070548;28;20657;-50
2023/03/30 02:17:48;;;;;;;66.17;27.73;;;8.90;99.90;;;;;;5071046;28;20248;-50
2023/03/30 02:20:17;;;;;;;40.20;20.43;;;8.90;99.90;;;;;;5070349;28;20236;-50
2023/03/30 02:22:46;;;;;;;36.37;22.73;;;8.80;99.90;;;;;;5070805;28;20254;-50
2023/03/30 02:25:16;;;;;;;40.23;19.73;;;8.90;99.90;;;;;;5070648;28;20232;-51
2023/03/30 02:27:45;;;;;;;84.23;22.50;;;8.90;99.90;;;;;;5070684;28;20215;-50
2023/03/30 02:30:14;;;;;;;38.73;22.03;;;8.90;99.90;;;;;;5070364;28;20209;-51
2023/03/30 02:32:45;;;;;;;66.17;39.87;;;9.00;99.90;;;;;;5070427;28;20260;-51
2023/03/30 02:35:26;;;;;;;51.00;25.03;;;9.00;99.90;;;;;;5071045;28;20844;-50
2023/03/30 02:38:23;;;;;;;56.63;23.93;;;9.10;99.90;;;;;;5070330;28;20741;-50
2023/03/30 02:40:59;;;;;;;27.23;16.80;;;9.10;99.90;;;;;;5070205;28;20293;-49
2023/03/30 02:43:37;;;;;;;26.13;13.77;;;9.20;99.90;;;;;;5069215;28;20291;-49
2023/03/30 02:46:20;;;;;;;47.03;16.77;;;9.30;99.90;;;;;;5070434;28;20314;-51
2023/03/30 02:48:59;;;;;;;31.37;15.90;;;9.30;99.90;;;;;;5070178;28;20212;-51
2023/03/30 02:51:38;;;;;;;44.77;24.97;;;9.30;99.90;;;;;;5069835;28;20320;-51
2023/03/30 02:54:14;;;;;;;70.63;30.43;;;9.40;99.90;;;;;;5073315;28;20292;-51
2023/03/30 02:56:47;;;;;;;110.97;30.53;;;9.40;99.90;;;;;;5073170;28;20314;-51
2023/03/30 02:59:21;;;;;;;22.03;13.57;;;9.40;99.90;;;;;;5073158;28;20262;-50
2023/03/30 03:01:53;;;;;;;82.07;23.50;;;9.40;99.90;;;;;;5072587;28;20239;-50
2023/03/30 03:04:23;;;;;;;42.67;20.57;;;9.40;99.90;;;;;;5071293;28;20254;-51
2023/03/30 03:06:54;;;;;;;534.13;70.40;;;9.50;99.90;;;;;;5069671;28;20239;-51
2023/03/30 03:09:24;;;;;;;180.83;34.90;;;9.40;99.90;;;;;;5069933;28;20197;-50
2023/03/30 03:11:53;;;;;;;466.93;94.43;;;9.40;99.90;;;;;;5069720;28;20254;-51
2023/03/30 03:14:25;;;;;;;188.93;48.07;;;9.40;99.90;;;;;;5070189;28;20581;-51
2023/03/30 03:16:54;;;;;;;918.20;129.10;;;9.50;99.90;;;;;;5070153;28;20283;-51
2023/03/30 03:19:22;;;;;;;266.23;69.60;;;9.50;99.90;;;;;;5069779;28;20208;-51
2023/03/30 03:21:50;;;;;;;1999.90;302.50;;;9.50;99.90;;;;;;5069550;28;20312;-51
2023/03/30 03:24:18;;;;;;;650.27;107.87;;;9.50;99.90;;;;;;5069650;28;20200;-51
2023/03/30 03:26:46;;;;;;;1664.53;217.23;;;9.60;99.90;;;;;;5069613;28;20236;-50
2023/03/30 03:29:14;;;;;;;1223.03;162.87;;;9.60;99.90;;;;;;5069422;28;20221;-51
2023/03/30 03:31:44;;;;;;;308.47;66.50;;;9.70;99.90;;;;;;5069248;28;20287;-51
2023/03/30 03:34:11;;;;;;;216.53;43.83;;;9.70;99.90;;;;;;5069100;28;20307;-51
2023/03/30 03:36:39;;;;;;;1768.60;217.90;;;9.80;99.90;;;;;;5068853;28;20313;-51
2023/03/30 03:39:08;;;;;;;713.10;102.87;;;9.80;99.90;;;;;;5069384;28;20215;-51
2023/03/30 03:41:36;;;;;;;670.33;109.07;;;9.80;99.90;;;;;;5068693;28;20208;-51
2023/03/30 03:44:04;;;;;;;99.47;26.37;;;9.80;99.90;;;;;;5068594;28;20726;-51
2023/03/30 03:46:32;;;;;;;1753.20;235.57;;;9.90;99.90;;;;;;5068958;28;20713;-50
2023/03/30 03:49:01;;;;;;;595.67;112.53;;;9.80;99.90;;;;;;5068800;28;20239;-50
2023/03/30 03:51:31;;;;;;;1589.33;198.37;;;9.80;99.90;;;;;;5068653;28;20291;-51
2023/03/30 03:54:00;;;;;;;1245.67;197.67;;;9.80;99.90;;;;;;5068633;28;20645;-50
2023/03/30 03:56:28;;;;;;;596.47;105.53;;;9.80;99.90;;;;;;5068989;28;20267;-51
2023/03/30 03:58:56;;;;;;;1956.47;240.53;;;9.80;99.90;;;;;;5069049;28;20212;-51
2023/03/30 04:01:24;;;;;;;288.60;38.53;;;9.80;99.90;;;;;;5068917;28;20212;-52
2023/03/30 04:03:52;;;;;;;1272.87;195.97;;;9.80;99.90;;;;;;5069098;28;20207;-50
2023/03/30 04:06:22;;;;;;;1111.20;151.83;;;9.80;99.90;;;;;;5069064;28;20323;-50
2023/03/30 04:08:50;;;;;;;1356.73;165.83;;;9.70;99.90;;;;;;5068540;28;20299;-51
2023/03/30 04:11:18;;;;;;;764.43;106.63;;;9.70;99.90;;;;;;5069052;28;20649;-51
2023/03/30 04:13:47;;;;;;;1963.87;232.37;;;9.80;99.90;;;;;;5068232;28;20228;-50
2023/03/30 04:16:15;;;;;;;1599.27;207.40;;;9.80;99.90;;;;;;5068839;28;20239;-51
2023/03/30 04:18:43;;;;;;;1297.90;167.77;;;9.80;99.90;;;;;;5054398;28;20247;-51
2023/03/30 04:21:12;;;;;;;798.60;90.53;;;9.80;99.90;;;;;;5068571;28;20227;-51
2023/03/30 04:23:44;;;;;;;143.60;30.80;;;9.80;99.90;;;;;;5068766;28;20197;-51
2023/03/30 04:26:14;;;;;;;225.00;41.03;;;9.80;99.90;;;;;;5068792;28;20631;-51
2023/03/30 04:28:42;;;;;;;163.90;32.07;;;9.80;99.90;;;;;;5068690;28;20235;-50
2023/03/30 04:31:11;;;;;;;556.43;74.13;;;9.80;99.90;;;;;;5068599;28;20303;-50
2023/03/30 04:33:49;;;;;;;670.67;102.60;;;9.80;99.90;;;;;;5067783;28;20996;-50
2023/03/30 04:36:19;;;;;;;104.00;18.90;;;9.70;99.90;;;;;;5055163;28;20312;-50
2023/03/30 04:38:57;;;;;;;390.53;54.23;;;9.70;99.90;;;;;;5068242;28;20927;-48
2023/03/30 04:41:32;;;;;;;512.27;62.77;;;9.70;99.90;;;;;;5055434;28;20199;-50
2023/03/30 04:44:02;;;;;;;210.40;27.97;;;9.80;99.90;;;;;;5068383;28;20208;-49
2023/03/30 04:46:30;;;;;;;119.50;23.97;;;9.80;99.90;;;;;;5068581;28;20224;-49
2023/03/30 04:48:58;;;;;;;433.20;59.23;;;9.90;99.90;;;;;;5068467;28;20227;-51
2023/03/30 04:51:26;;;;;;;324.70;47.50;;;10.00;99.90;;;;;;5068092;28;20304;-50
2023/03/30 04:53:56;;;;;;;166.80;38.17;;;10.00;99.90;;;;;;5068362;28;20256;-51
2023/03/30 04:56:25;;;;;;;160.20;34.47;;;10.00;99.90;;;;;;5068152;28;20320;-50
2023/03/30 04:58:53;;;;;;;65.03;25.20;;;10.10;99.90;;;;;;5068736;28;20632;-51
2023/03/30 05:01:21;;;;;;;884.70;86.10;;;10.10;99.90;;;;;;5068311;28;20776;-50
2023/03/30 05:03:49;;;;;;;720.93;96.63;;;10.10;99.90;;;;;;5068424;28;20209;-50
2023/03/30 05:06:17;;;;;;;392.83;54.87;;;10.10;99.90;;;;;;5068504;28;20235;-51
2023/03/30 05:08:45;;;;;;;907.70;107.20;;;10.10;99.90;;;;;;5071947;28;20208;-50
2023/03/30 05:11:15;;;;;;;1697.03;180.00;;;10.10;99.90;;;;;;5071893;28;20327;-50
2023/03/30 05:13:43;;;;;;;232.40;64.53;;;10.00;99.90;;;;;;5071645;28;20216;-51
2023/03/30 05:16:11;;;;;;;761.63;101.37;;;10.10;99.90;;;;;;5065038;28;20227;-50
2023/03/30 05:18:39;;;;;;;477.70;72.10;;;10.10;99.90;;;;;;5066536;28;20243;-52
2023/03/30 05:21:07;;;;;;;506.47;63.83;;;10.10;99.90;;;;;;5059820;28;20281;-50
2023/03/30 05:23:35;;;;;;;1381.03;166.63;;;10.10;99.90;;;;;;5065321;28;20300;-51
2023/03/30 05:26:03;;;;;;;803.43;88.40;;;10.10;99.90;;;;;;5072011;28;20585;-49
2023/03/30 05:28:33;;;;;;;409.40;57.93;;;10.20;99.90;;;;;;5071786;28;20258;-50
2023/03/30 05:31:01;;;;;;;225.57;38.10;;;10.20;99.90;;;;;;5072003;28;20228;-51
2023/03/30 05:33:29;;;;;;;341.33;47.70;;;10.20;99.90;;;;;;5070769;28;20769;-50
2023/03/30 05:35:57;;;;;;;423.63;56.63;;;10.30;99.90;;;;;;5070920;28;20697;-50
2023/03/30 05:38:25;;;;;;;182.83;27.77;;;10.30;99.90;;;;;;5071767;28;20303;-50
2023/03/30 05:40:54;;;;;;;244.47;32.90;;;10.30;99.90;;;;;;5071993;28;20581;-51
2023/03/30 05:43:22;;;;;;;1459.17;175.27;;;10.30;99.90;;;;;;5071626;28;20288;-50
2023/03/30 05:45:51;;;;;;;665.70;91.13;;;10.30;99.90;;;;;;5071732;28;20644;-50
2023/03/30 05:48:19;;;;;;;870.00;116.17;;;10.40;99.90;;;;;;5071608;28;20236;-50
2023/03/30 05:50:48;;;;;;;605.77;74.80;;;10.40;99.90;;;;;;5071681;28;20339;-49
2023/03/30 05:53:16;;;;;;;197.63;28.67;;;10.50;99.90;;;;;;5071433;28;20835;-50
2023/03/30 05:55:45;;;;;;;637.20;88.10;;;10.50;99.90;;;;;;5071533;28;20241;-50
2023/03/30 05:58:14;;;;;;;1356.07;154.27;;;10.50;99.90;;;;;;5071769;28;20250;-50
2023/03/30 06:00:42;;;;;;;317.40;55.03;;;10.50;99.90;;;;;;5071534;28;20292;-50
2023/03/30 06:03:12;;;;;;;841.80;122.87;;;10.50;99.90;;;;;;5071166;28;20239;-50
2023/03/30 06:05:42;;;;;;;384.00;58.40;;;10.50;99.90;;;;;;5071262;28;20611;-50
2023/03/30 06:08:11;;;;;;;1922.57;194.80;;;10.50;99.90;;;;;;5071438;28;20320;-50
2023/03/30 06:10:39;;;;;;;1999.90;248.43;;;10.50;99.90;;;;;;5071007;28;20593;-50
2023/03/30 06:13:07;;;;;;;1617.67;157.47;;;10.50;99.90;;;;;;5071048;28;20227;-50
2023/03/30 06:15:35;;;;;;;1642.67;157.30;;;10.50;99.90;;;;;;5070822;28;20239;-50
2023/03/30 06:18:03;;;;;;;1999.90;311.50;;;10.50;99.90;;;;;;5070737;28;20288;-51
2023/03/30 06:20:33;;;;;;;855.17;100.23;;;10.60;99.90;;;;;;5070871;28;20629;-50
2023/03/30 06:23:01;;;;;;;681.83;79.87;;;10.60;99.90;;;;;;5070686;28;20205;-50
2023/03/30 06:25:29;;;;;;;1725.93;199.33;;;10.60;99.90;;;;;;5070588;28;20736;-50
2023/03/30 06:27:57;;;;;;;748.90;86.93;;;10.60;99.90;;;;;;5070846;28;20358;-50
2023/03/30 06:30:25;;;;;;;1909.70;208.57;;;10.70;99.90;;;;;;5070426;28;20741;-50
2023/03/30 06:32:54;;;;;;;1999.90;306.77;;;10.70;99.90;;;;;;5070378;28;20240;-50
2023/03/30 06:35:22;;;;;;;1000.17;131.53;;;10.70;99.90;;;;;;5070354;28;20225;-50
2023/03/30 06:37:51;;;;;;;1999.90;246.13;;;10.70;99.90;;;;;;5070447;28;20288;-50
2023/03/30 06:40:19;;;;;;;1480.40;188.67;;;10.70;99.90;;;;;;5070451;28;20300;-50
2023/03/30 06:42:47;;;;;;;1588.30;174.60;;;10.80;99.90;;;;;;5069941;28;20288;-50
2023/03/30 06:45:15;;;;;;;1999.90;268.10;;;10.80;99.90;;;;;;5064031;28;20785;-53
2023/03/30 06:47:43;;;;;;;1970.80;217.90;;;10.70;99.90;;;;;;5065333;28;20224;-53
2023/03/30 06:50:12;;;;;;;1999.90;255.13;;;10.80;99.90;;;;;;5062346;28;20233;-54
2023/03/30 06:52:40;;;;;;;1811.30;194.33;;;10.80;99.90;;;;;;5061891;28;20670;-53
2023/03/30 06:55:09;;;;;;;1258.87;161.43;;;10.80;99.90;;;;;;5069235;28;20673;-53
2023/03/30 06:57:37;;;;;;;1990.37;239.97;;;10.80;99.90;;;;;;5069302;28;20233;-52
2023/03/30 07:00:12;;;;;;;1999.90;316.17;;;10.80;99.90;;;;;;5069785;28;20300;-52
2023/03/30 07:02:40;;;;;;;1839.47;234.30;;;10.80;99.90;;;;;;5070068;28;20204;-53
2023/03/30 07:05:08;;;;;;;1607.57;188.63;;;10.80;99.90;;;;;;5069697;28;20208;-53
2023/03/30 07:07:38;;;;;;;1516.20;161.97;;;10.80;99.90;;;;;;5069633;28;20320;-53
2023/03/30 07:10:09;;;;;;;1475.93;180.00;;;10.90;99.90;;;;;;5069869;28;20259;-53
2023/03/30 07:12:39;;;;;;;1999.90;246.60;;;10.80;99.90;;;;;;5069564;28;20212;-53
2023/03/30 07:15:08;;;;;;;1999.90;295.67;;;10.80;99.90;;;;;;5069676;28;20229;-53
2023/03/30 07:17:36;;;;;;;1489.13;189.90;;;10.80;99.90;;;;;;5069741;28;20268;-53
2023/03/30 07:20:07;;;;;;;1893.60;238.67;;;10.80;99.90;;;;;;5069831;28;20220;-53
2023/03/30 07:22:35;;;;;;;1865.37;178.23;;;10.80;99.90;;;;;;5069743;28;20216;-51
2023/03/30 07:25:04;;;;;;;1109.20;106.57;;;10.80;99.90;;;;;;5069531;28;20232;-50
2023/03/30 07:27:32;;;;;;;1999.90;273.90;;;10.90;99.90;;;;;;5069669;28;20304;-51
2023/03/30 07:30:01;;;;;;;1009.10;116.47;;;10.90;99.90;;;;;;5069084;28;20209;-51
2023/03/30 07:32:47;;;;;;;1318.40;134.90;;;11.00;99.90;;;;;;5068969;28;20228;-51
2023/03/30 07:35:16;;;;;;;1696.00;184.20;;;11.20;99.90;;;;;;5069601;28;20236;-50
2023/03/30 07:37:44;;;;;;;1219.43;131.60;;;11.30;99.90;;;;;;5064904;28;20225;-50
2023/03/30 07:40:12;;;;;;;1999.90;466.17;;;11.40;99.90;;;;;;5060126;28;20209;-51
2023/03/30 07:42:41;;;;;;;1133.17;161.73;;;11.40;99.90;;;;;;5069127;28;20216;-51
2023/03/30 07:45:11;;;;;;;1999.90;379.40;;;11.40;99.90;;;;;;5069126;28;20600;-50
2023/03/30 07:47:43;;;;;;;1999.90;357.63;;;11.50;99.90;;;;;;5068337;28;20278;-51
2023/03/30 07:50:11;;;;;;;1999.90;346.10;;;11.60;99.90;;;;;;5069284;28;20232;-51
2023/03/30 07:52:39;;;;;;;1999.90;580.07;;;11.80;99.90;;;;;;5068236;28;20322;-51
2023/03/30 07:55:08;;;;;;;1999.90;462.83;;;11.80;99.90;;;;;;5069161;28;20745;-50
2023/03/30 07:57:36;;;;;;;1999.90;467.20;;;11.80;99.90;;;;;;5069354;28;20235;-50
2023/03/30 08:00:07;;;;;;;1999.90;294.00;;;11.80;99.90;;;;;;5069202;28;20635;-51
2023/03/30 08:02:36;;;;;;;1999.90;565.43;;;11.80;99.90;;;;;;5068811;28;20213;-50
2023/03/30 08:05:05;;;;;;;1999.90;394.10;;;11.80;99.90;;;;;;5068919;28;20205;-50
2023/03/30 08:07:34;;;;;;;1999.90;340.10;;;11.90;99.90;;;;;;5069135;28;20278;-51
2023/03/30 08:10:02;;;;;;;1999.90;468.30;;;12.00;99.90;;;;;;5068926;28;20213;-51
2023/03/30 08:12:30;;;;;;;1999.90;418.13;;;12.10;99.90;;;;;;5068697;28;20213;-51
2023/03/30 08:14:58;;;;;;;1999.90;330.47;;;12.10;99.90;;;;;;5068572;28;20266;-50
2023/03/30 08:17:26;;;;;;;1999.90;291.40;;;12.20;99.90;;;;;;5068471;28;20876;-51
2023/03/30 08:19:56;;;;;;;1999.90;395.03;;;12.10;99.90;;;;;;5068604;28;20836;-50
2023/03/30 08:22:24;;;;;;;1999.90;331.80;;;12.10;99.90;;;;;;5068845;28;20262;-51
2023/03/30 08:24:52;;;;;;;1999.90;379.13;;;12.30;99.90;;;;;;5068427;28;20205;-50
2023/03/30 08:27:20;;;;;;;1999.90;278.63;;;12.50;99.90;;;;;;5068870;28;20660;-50
2023/03/30 08:29:48;;;;;;;1999.90;569.53;;;12.70;99.90;;;;;;5068690;28;20205;-50
2023/03/30 08:32:16;;;;;;;1999.90;444.67;;;12.90;99.90;;;;;;5068870;28;20247;-50
2023/03/30 08:34:44;;;;;;;1999.90;499.57;;;13.00;99.90;;;;;;5068882;28;20291;-51
2023/03/30 08:37:13;;;;;;;1999.90;491.00;;;13.10;99.90;;;;;;5069370;28;20319;-50
2023/03/30 08:39:41;;;;;;;1999.90;384.30;;;13.10;99.90;;;;;;5056739;28;20205;-51
2023/03/30 08:42:25;;;;;;;1999.90;685.50;;;13.20;99.90;;;;;;5073811;28;20635;-51
2023/03/30 08:44:55;;;;;;;1999.90;494.50;;;13.20;99.90;;;;;;5074056;28;20209;-50
2023/03/30 08:47:33;;;;;;;1999.90;571.90;;;13.60;99.90;;;;;;5074128;28;20901;-51
2023/03/30 08:50:07;;;;;;;1999.90;428.10;;;13.80;99.90;;;;;;5074138;28;20204;-51
2023/03/30 08:52:37;;;;;;;1999.90;607.57;;;14.10;99.90;;;;;;5072395;28;20205;-51
2023/03/30 08:55:06;;;;;;;1999.90;538.40;;;14.50;99.90;;;;;;5072508;28;20229;-50
2023/03/30 08:57:46;;;;;;;1999.90;696.70;;;14.70;99.90;;;;;;5072096;28;20989;-50
2023/03/30 09:00:26;;;;;;;1999.90;711.20;;;14.90;99.90;;;;;;5071901;28;20761;-50
2023/03/30 09:03:05;;;;;;;1999.90;626.08;;;15.00;99.90;;;;;;5072204;28;20645;-51
2023/03/30 09:05:40;;;;;;;1999.90;898.55;;;15.10;99.90;;;;;;5068313;28;20281;-50
2023/03/30 09:08:17;;;;;;;1999.90;712.88;;;15.30;99.90;;;;;;5072343;28;20232;-49
2023/03/30 09:10:51;;;;;;;1999.90;485.33;;;15.30;99.90;;;;;;5058287;28;20212;-51
2023/03/30 09:13:23;;;;;;;1999.90;970.88;;;15.20;99.90;;;;;;5072037;28;20226;-51
2023/03/30 09:15:57;;;;;;;1999.90;515.80;;;15.10;99.90;;;;;;5071928;28;20228;-50
2023/03/30 09:18:29;;;;;;;1999.90;755.83;;;15.10;99.90;;;;;;5072245;28;20201;-51
2023/03/30 09:21:00;;;;;;;1999.90;635.28;;;15.00;99.90;;;;;;5057956;28;20244;-50
2023/03/30 09:23:30;;;;;;;1999.90;629.45;;;15.00;99.90;;;;;;5071725;28;20631;-51
2023/03/30 09:26:06;;;;;;;1999.90;678.78;;;15.10;99.90;;;;;;5071874;28;20221;-51
2023/03/30 09:28:42;;;;;;;1999.90;737.65;;;15.00;99.90;;;;;;5072153;28;20228;-50
2023/03/30 09:31:16;;;;;;;1999.90;866.10;;;15.10;99.90;;;;;;5072058;28;20303;-51
2023/03/30 09:33:57;;;;;;;1999.90;769.03;;;15.10;99.90;;;;;;5071849;28;20209;-50
2023/03/30 09:36:32;;;;;;;1999.90;648.70;;;15.00;99.90;;;;;;5071822;28;20686;-51
2023/03/30 09:39:01;;;;;;;1999.90;833.95;;;15.00;99.90;;;;;;5071824;28;20197;-51
2023/03/30 09:41:40;;;;;;;1999.90;596.10;;;14.90;99.90;;;;;;5071489;28;20296;-51
2023/03/30 09:44:18;;;;;;;1999.90;666.05;;;14.90;99.90;;;;;;5071605;28;20239;-49
2023/03/30 09:46:48;;;;;;;1999.90;896.17;;;15.00;99.90;;;;;;5071304;28;20217;-51
2023/03/30 09:49:17;;;;;;;1999.90;845.35;;;14.90;99.90;;;;;;5070266;28;20204;-51
2023/03/30 09:52:01;;;;;;;1999.90;660.65;;;14.90;99.90;;;;;;5059591;28;20208;-50
2023/03/30 09:54:37;;;;;;;1999.90;771.85;;;15.00;99.90;;;;;;5063361;28;20258;-51
2023/03/30 09:57:06;;;;;;;1999.90;821.42;;;15.20;99.90;;;;;;5071242;28;20260;-51
2023/03/30 09:59:36;;;;;;;1999.90;560.38;;;15.30;99.90;;;;;;5071363;28;20216;-51
2023/03/30 10:02:18;;;;;;;1999.90;767.70;;;15.40;99.90;;;;;;5070554;28;20319;-51
2023/03/30 10:05:02;;;;;;;1999.90;791.00;;;15.50;99.90;;;;;;5071244;28;20237;-51
2023/03/30 10:07:35;;;;;;;1999.90;695.08;;;15.50;99.90;;;;;;5059066;28;20282;-50
2023/03/30 10:10:15;;;;;;;1999.90;951.90;;;15.60;99.90;;;;;;5071513;28;20213;-51
2023/03/30 10:12:44;;;;;;;1999.90;829.97;;;15.70;99.90;;;;;;5070928;28;20653;-50
2023/03/30 10:15:16;;;;;;;1999.90;750.58;;;15.80;99.90;;;;;;5070734;28;20209;-50
2023/03/30 10:17:47;;;;;;;1999.90;856.67;;;16.10;99.90;;;;;;5070700;28;20286;-51
2023/03/30 10:20:25;;;;;;;1999.90;808.78;;;16.30;99.90;;;;;;5071218;28;20243;-50
2023/03/30 10:22:55;;;;;;;1999.90;965.22;;;16.40;99.90;;;;;;5070848;28;20697;-51
2023/03/30 10:25:30;;;;;;;1999.90;827.53;;;16.30;99.90;;;;;;5069720;28;20291;-52
2023/03/30 10:28:03;;;;;;;1999.90;942.17;;;16.30;99.90;;;;;;5070839;28;20288;-50
2023/03/30 10:30:33;;;;;;;1999.90;848.00;;;16.10;99.90;;;;;;5072368;28;20236;-51
2023/03/30 10:33:02;;;;;;;1999.90;694.65;;;16.10;99.90;;;;;;5073285;28;20300;-51
2023/03/30 10:35:35;;;;;;;1999.90;820.67;;;16.20;99.90;;;;;;5073456;28;20220;-51
2023/03/30 10:38:05;;;;;;;1999.90;889.83;;;16.40;99.90;;;;;;5059989;28;20702;-51
2023/03/30 10:40:36;;;;;;;1999.90;892.33;;;16.60;99.90;;;;;;5073209;28;20244;-51
2023/03/30 10:43:10;;;;;;;1999.90;858.50;;;16.60;99.90;;;;;;5073042;28;20262;-51
2023/03/30 10:45:43;;;;;;;1999.90;999.90;;;16.60;99.90;;;;;;5070139;28;20213;-51
2023/03/30 10:48:27;;;;;;;1999.90;851.13;;;16.40;99.90;;;;;;5070467;28;20227;-50
2023/03/30 10:51:05;;;;;;;1999.90;962.38;;;15.90;99.90;;;;;;5069926;28;20324;-51
2023/03/30 10:53:41;;;;;;;1999.90;722.95;;;15.70;99.90;;;;;;5069700;28;20278;-51
2023/03/30 10:56:22;;;;;;;1999.90;996.78;;;15.40;99.90;;;;;;5070046;28;20721;-52
2023/03/30 10:59:19;;;;;;;1999.90;635.28;;;15.10;99.90;;;;;;5070416;28;20319;-51
2023/03/30 11:01:58;;;;;;;1999.90;590.22;;;14.90;99.90;;;;;;5069564;28;20307;-51
2023/03/30 11:04:32;;;;;;;1999.90;423.52;;;14.70;99.90;;;;;;5068649;28;20284;-51
2023/03/30 11:07:01;;;;;;;1999.90;646.83;;;14.50;99.90;;;;;;5069235;28;20259;-51
2023/03/30 11:09:32;;;;;;;1999.90;510.20;;;14.20;99.90;;;;;;5068522;28;20207;-51
2023/03/30 11:12:05;;;;;;;1999.90;648.33;;;14.00;99.90;;;;;;5069575;28;20223;-51
2023/03/30 11:14:41;;;;;;;1999.90;436.27;;;13.80;99.90;;;;;;5069666;28;20608;-51
2023/03/30 11:17:16;;;;;;;1999.90;607.50;;;13.70;99.90;;;;;;5069789;28;20256;-51
2023/03/30 11:19:49;;;;;;;1999.90;342.45;;;13.60;99.90;;;;;;5068960;28;20723;-51
2023/03/30 11:22:28;;;;;;;1999.90;426.77;;;13.60;99.90;;;;;;5069718;28;20205;-50
2023/03/30 11:25:01;;;;;;;1970.78;297.08;;;13.70;99.90;;;;;;5069787;28;20201;-51
2023/03/30 11:27:35;;;;;;;1999.90;409.60;;;13.70;99.90;;;;;;5069417;28;20255;-52
2023/03/30 11:30:09;;;;;;;1999.90;408.15;;;13.70;99.90;;;;;;5060376;28;20201;-50
2023/03/30 11:32:43;;;;;;;1999.90;331.80;;;13.60;99.90;;;;;;5065552;28;20236;-51
2023/03/30 11:35:17;;;;;;;1999.90;412.50;;;13.50;99.90;;;;;;5061492;28;20201;-51
2023/03/30 11:37:50;;;;;;;1999.90;609.47;;;13.40;99.90;;;;;;5068909;28;20323;-51
2023/03/30 11:40:20;;;;;;;1999.90;916.53;;;13.30;99.90;;;;;;5069175;28;20205;-50
2023/03/30 11:42:52;;;;;;;1999.90;824.13;;;13.10;99.90;;;;;;5068879;28;20205;-50
2023/03/30 11:46:00;;;;;;;1999.90;676.73;;;12.80;99.90;;;;;;5069171;28;20232;-49
2023/03/30 11:49:04;;;;;;;1999.90;434.10;;;12.60;99.90;;;;;;5039231;28;20270;-51
2023/03/30 11:51:48;;;;;;;1271.63;160.73;;;12.60;99.90;;;;;;5053728;28;20208;-51
2023/03/30 11:54:39;;;;;;;1999.90;298.53;;;12.60;99.90;;;;;;5061121;28;20204;-51
2023/03/30 11:57:29;;;;;;;1993.07;324.67;;;12.80;99.90;;;;;;5068310;28;20278;-51
2023/03/30 12:00:13;;;;;;;1828.67;292.77;;;13.00;99.90;;;;;;5068523;28;20666;-51
2023/03/30 12:02:48;;;;;;;1320.00;184.80;;;13.10;99.90;;;;;;5058490;28;20212;-51
2023/03/30 12:05:21;;;;;;;1390.47;187.30;;;13.10;99.90;;;;;;5068962;28;20208;-51
2023/03/30 12:07:56;;;;;;;1966.73;313.77;;;13.10;99.90;;;;;;5067905;28;20777;-50
2023/03/30 12:10:31;;;;;;;1999.90;450.50;;;13.20;99.90;;;;;;5068806;28;20283;-50
2023/03/30 12:13:00;;;;;;;1999.90;356.10;;;13.20;99.90;;;;;;5068406;28;20362;-51
2023/03/30 12:15:40;;;;;;;1999.90;321.10;;;13.30;99.90;;;;;;5068297;28;20292;-50
2023/03/30 12:18:19;;;;;;;1999.90;549.13;;;13.60;99.90;;;;;;5068114;28;20235;-52
2023/03/30 12:20:52;;;;;;;1999.90;573.38;;;13.70;99.90;;;;;;5068396;28;20292;-50
2023/03/30 12:23:33;;;;;;;1999.90;601.08;;;13.70;99.90;;;;;;5068732;28;20292;-51
2023/03/30 12:26:16;;;;;;;1999.90;407.52;;;13.70;99.90;;;;;;5068226;28;20225;-51
2023/03/30 12:28:47;;;;;;;1999.90;370.42;;;13.70;99.90;;;;;;5068051;28;20717;-50
2023/03/30 12:31:20;;;;;;;1999.90;563.50;;;13.70;99.90;;;;;;5068660;28;20200;-50
2023/03/30 12:33:49;;;;;;;1999.90;485.45;;;13.80;99.90;;;;;;5068562;28;20213;-51
2023/03/30 12:36:33;;;;;;;1999.90;607.50;;;13.80;99.90;;;;;;5068103;28;20563;-50